Ledsham, United Kingdom
Current Conditions -  °F | °C
As of 8:20 PM on Friday 21 Nov 2014 (Local Time) from EGNM Reporting Station
Light Rain Light Rain  
Wind Chill: 35°   Ceiling: 500
Heat Index: 43°   Visibility: 1.8mi
Dew Point: 43°   Wind: 16mph
Humidity: 100%   Direction: 130°SE
Pressure: 29.91"   Gusts: NA
Location:  53.76°N, 1.31°W
Report Text: EGNM 212020Z 13014KT 3000 -RA BR SCT002 BKN005 06/06 Q1013
Loading
Personal Weather Stations






























Interactive Weather Map New forecast layout! Learn more

10-Day Weather Forecast

Advertisements
Track Severe Weather on mobile